Address 0x7aad7840f119f3876ee3569e488c7c4135f695fa

Txn Hash Method
Block
From
To
Value [Txn Fee]
0x99d2b4101511507a88e4b8a088ca547abedc7916c7d416ce90a006e2f3fdc8d4Transfer150210182022-05-22 7:51:5156 secs ago0x265518e19a20c67a6521b3c547d2b3317adb0e4b IN 0x7aad7840f119f3876ee3569e488c7c4135f695fa24.999475 AVAX0.00052525
0x87609ae37c9de255b0bdf2f14f85bdc929500d596e4f6d61cfa3679b79a8a921Transfer150199442022-05-22 7:15:5936 mins ago0x3bdc7928220ab14e9cff94a6b1b9361caa57dfb5 IN 0x7aad7840f119f3876ee3569e488c7c4135f695fa19.999475 AVAX0.00052525
0x3ce7471da2a5132b39d3e72d6cd52a7f6e89d3536b61fc3c95df75397a181ec1Transfer150194592022-05-22 6:59:4653 mins ago0x583fe8e8ab956470f1399282f4e6276adb6fe6a2 IN 0x7aad7840f119f3876ee3569e488c7c4135f695fa1.999475 AVAX0.00052525
0x12d38e3cfc3bf0f623f694326fc72d32d2523e7bd4858315e4e15eeee8a4236eTransfer150189352022-05-22 6:42:171 hr 10 mins ago0x30341ba1f3fbd96a658251073232664206230b61 IN 0x7aad7840f119f3876ee3569e488c7c4135f695fa6.699475 AVAX0.00052525
0x2479e5858aff963f8ea6ceffab63fe5663f0f068eea16295cfc29983cfa30ae5Transfer150179552022-05-22 6:09:291 hr 43 mins ago0x345f895b85c6be4dfdd65b1f235dc4d5697b1567 IN 0x7aad7840f119f3876ee3569e488c7c4135f695fa0.249475 AVAX0.00052525
0xa07084dfd44a0ac00e0fb520fcd72a2a9074956993731a616091c606669ec1dfTransfer150179552022-05-22 6:09:291 hr 43 mins ago0x3974d529537115618b5be54129e9738e245080e6 IN 0x7aad7840f119f3876ee3569e488c7c4135f695fa3.358261560809399 AVAX0.00052525
0xa342d32045769cd881e6fc0e5e39084f6c922e335499ac2948febe76596c9d48Transfer150170552022-05-22 5:39:122 hrs 13 mins ago0x345f895b85c6be4dfdd65b1f235dc4d5697b1567 IN 0x7aad7840f119f3876ee3569e488c7c4135f695fa0.699475 AVAX0.00052525
0x605bcb606b6626326428a186ed929bf814366568ffe23e33276c86d33ab2d681Transfer150170552022-05-22 5:39:122 hrs 13 mins ago0xbf8f1b037f5ae586685b167b510a38c17baefd04 IN 0x7aad7840f119f3876ee3569e488c7c4135f695fa9.998866 AVAX0.00052525
0x6bcd5cb815ab95f28f963ca4494e1d7d26d46f6d726e126a4f5a436e52535b58Transfer150165262022-05-22 5:21:432 hrs 31 mins ago0x771ad5371c172b0bc76e382a51ed40017cb8d3df IN 0x7aad7840f119f3876ee3569e488c7c4135f695fa2.970483458756339 AVAX0.00052525
0xfa6de9991667f08a77ea5c981947bd0a93be03b8707bfba8fa55793f65911b16Transfer150160462022-05-22 5:05:412 hrs 47 mins ago0xa27d41091e249433a8d98cb2d5ab5067c62b17ca IN 0x7aad7840f119f3876ee3569e488c7c4135f695fa16.71922234 AVAX0.00052525
0x39da3a95ff4c4315e05a8b5052b9131fe26604f09fde616ecb093f96906ce115Transfer150160452022-05-22 5:05:392 hrs 47 mins ago0x63e6d9f3ea547adf1b6758da267782e7c49afb9c IN 0x7aad7840f119f3876ee3569e488c7c4135f695fa44.999475 AVAX0.00052525
0x2962f9555e4ba95b34ef18bb25ba2a29b821f965bef96b96cbd83a34730d0121Transfer150160452022-05-22 5:05:392 hrs 47 mins ago0x3a939959be6c646c1f0cd156a5a0950c9a080804 IN 0x7aad7840f119f3876ee3569e488c7c4135f695fa33.26491967 AVAX0.00052525
0x396b0307ce28fc421a3834fce356c1f124b23c0c2556d966c949be214c530befTransfer150156742022-05-22 4:53:012 hrs 59 mins ago0x88decc76eb7b81de0c53a4bea860574cb2a3db0a IN 0x7aad7840f119f3876ee3569e488c7c4135f695fa0.199475 AVAX0.00052525
0x8bdfe51dfaf8846560ba9107f708e923e3172f32c90ca6cd29e61475f0eccfbfTransfer150152162022-05-22 4:37:353 hrs 15 mins ago0x7ab3057d192ed275c54f4bba5556286f5bfc8aee IN 0x7aad7840f119f3876ee3569e488c7c4135f695fa2.22712755 AVAX0.00052525
0xc2db65ab2dbd45e2b2996700cf992c2aad76932942d144549d8737403259b995Transfer150152162022-05-22 4:37:353 hrs 15 mins ago0x017b513c0d3ff26d6e974d87bb2ed7f9a1649526 IN 0x7aad7840f119f3876ee3569e488c7c4135f695fa0.569475 AVAX0.00052525
0x8479244173a55d9b437da875aafd78a74966f138907b4a043fc325970fbdba52Transfer150142492022-05-22 4:05:203 hrs 47 mins ago0xb2a39980b1df4cd3272de0dbe29f6212d689d1bc IN 0x7aad7840f119f3876ee3569e488c7c4135f695fa18.999475 AVAX0.00052525
0x1a20b010a1e3910c70f9c03110dec5007a072c611bff4b309fec90b2ea4827f8Transfer150138032022-05-22 3:50:204 hrs 2 mins ago0x7df617dd5294e50c6090de04d5b2d5c81c9099be IN 0x7aad7840f119f3876ee3569e488c7c4135f695fa1.249881439345188 AVAX0.00052525
0xfe633920a0af594355341a8746f47f7ad25b3a60f1f827335f3089be9de1da98Transfer150128112022-05-22 3:17:034 hrs 35 mins ago0x2bb9633f476dcba4d75a6ff889368ce235c407aa IN 0x7aad7840f119f3876ee3569e488c7c4135f695fa10.499475 AVAX0.00052525
0x0c25bfe731abf9e55a94a9f0e019216df98ace5b27eb703a884b6cc985826ccbTransfer150123592022-05-22 3:01:564 hrs 50 mins ago0x9299ed1e8942d832094aade771e53deed4e3d164 IN 0x7aad7840f119f3876ee3569e488c7c4135f695fa11.33111198 AVAX0.00052525
0x1b80365ce6c3f1f1c58c097371fb0c6e2774c589ebe61f75e3975d354ad8ae75Transfer150123592022-05-22 3:01:564 hrs 50 mins ago0x2b90cd58c13687fcd0b26d248a502d83d47a6d4c IN 0x7aad7840f119f3876ee3569e488c7c4135f695fa8.799475 AVAX0.00052525
0xe1e3b5e13c19703e89049f76b3e87cd8f0dbb4e135ab55af5d3c23bfd5bc9b6aTransfer150123592022-05-22 3:01:564 hrs 50 mins ago0x32861ded914f19bc78f68745a109880da115820b IN 0x7aad7840f119f3876ee3569e488c7c4135f695fa0.874475 AVAX0.00052525
0xc922399e7fe1c825097a375ed4146f98e36e60da6ffedb1fcf28dc0a1a27d1ebTransfer150123592022-05-22 3:01:564 hrs 50 mins ago0xc69f4456768e904471c5caaf92452f6726c2efeb IN 0x7aad7840f119f3876ee3569e488c7c4135f695fa5.158759571996846 AVAX0.00052525
0x192df8a30d33962445755f8d4f3046fee05388e3c7b1ad5dd24fd2566bfed7ecTransfer150118122022-05-22 2:43:365 hrs 9 mins ago0xcaef754c0583bef592385b517e4710aceeffbfa1 IN 0x7aad7840f119f3876ee3569e488c7c4135f695fa4.199475 AVAX0.00052525
0x9d5c7ca9cbf93218700b56c8b0e14085e9aec44d7d64eeaab3fac8b1045cae65Transfer150113152022-05-22 2:26:555 hrs 25 mins ago0xb1f0f3495adf055103e6eb49b6e7dc32cab62628 IN 0x7aad7840f119f3876ee3569e488c7c4135f695fa9.52723077 AVAX0.00052525
0x35d7997288e9aa1628523bcf4a60a1cff09ee95871888ad64f9ab7056858ac74Transfer150113142022-05-22 2:26:535 hrs 25 mins ago0x90e51080b9b73b83032dc71d712b7d1cf905a2aa IN 0x7aad7840f119f3876ee3569e488c7c4135f695fa0.099475 AVAX0.00052525
[ Download CSV Export 
Parent Txn Hash Block From To Value
Loading

Contract Name:
0

Compiler Version
0

Optimization Enabled:
0

Other Settings:
-NA-
Block Transaction Gas Used Reward
Age Block Fee Address BC Fee Address Voting Power Jailed Incoming
Block Uncle Number Difficulty Gas Used Reward
Loading
Make sure to use the "Vote Down" button for any spammy posts, and the "Vote Up" for interesting conversations.